sensor_id;sensor_type;location;lat;lon;timestamp;P1;durP1;ratioP1;P2;durP2;ratioP2
23539;SDS011;11947;50.810;4.394;2023-02-24T00:01:18;43.47;;;5.18;;
23539;SDS011;11947;50.810;4.394;2023-02-24T00:03:49;37.80;;;5.30;;
23539;SDS011;11947;50.810;4.394;2023-02-24T00:06:17;30.23;;;4.50;;
23539;SDS011;11947;50.810;4.394;2023-02-24T00:08:43;43.35;;;5.35;;
23539;SDS011;11947;50.810;4.394;2023-02-24T00:11:10;27.73;;;4.72;;
23539;SDS011;11947;50.810;4.394;2023-02-24T00:13:38;35.72;;;5.20;;
23539;SDS011;11947;50.810;4.394;2023-02-24T00:16:05;43.50;;;4.88;;
23539;SDS011;11947;50.810;4.394;2023-02-24T00:18:31;40.65;;;5.03;;
23539;SDS011;11947;50.810;4.394;2023-02-24T00:21:02;31.63;;;4.32;;
23539;SDS011;11947;50.810;4.394;2023-02-24T00:23:37;41.17;;;5.22;;
23539;SDS011;11947;50.810;4.394;2023-02-24T00:26:04;45.28;;;5.60;;
23539;SDS011;11947;50.810;4.394;2023-02-24T00:28:32;45.22;;;5.05;;
23539;SDS011;11947;50.810;4.394;2023-02-24T00:31:05;35.63;;;5.35;;
23539;SDS011;11947;50.810;4.394;2023-02-24T00:33:38;36.50;;;5.15;;
23539;SDS011;11947;50.810;4.394;2023-02-24T00:36:13;41.40;;;4.80;;
23539;SDS011;11947;50.810;4.394;2023-02-24T00:38:41;45.13;;;4.82;;
23539;SDS011;11947;50.810;4.394;2023-02-24T00:41:11;34.28;;;4.07;;
23539;SDS011;11947;50.810;4.394;2023-02-24T00:43:40;35.67;;;4.85;;
23539;SDS011;11947;50.810;4.394;2023-02-24T00:46:11;39.63;;;4.70;;
23539;SDS011;11947;50.810;4.394;2023-02-24T00:48:38;44.00;;;5.15;;
23539;SDS011;11947;50.810;4.394;2023-02-24T00:51:16;39.00;;;4.55;;
23539;SDS011;11947;50.810;4.394;2023-02-24T00:53:47;38.40;;;4.80;;
23539;SDS011;11947;50.810;4.394;2023-02-24T00:56:13;32.58;;;4.32;;
23539;SDS011;11947;50.810;4.394;2023-02-24T00:58:40;28.27;;;4.32;;
23539;SDS011;11947;50.810;4.394;2023-02-24T01:01:13;42.97;;;4.68;;
23539;SDS011;11947;50.810;4.394;2023-02-24T01:03:41;31.20;;;4.70;;
23539;SDS011;11947;50.810;4.394;2023-02-24T01:06:08;34.45;;;4.60;;
23539;SDS011;11947;50.810;4.394;2023-02-24T01:08:34;32.78;;;4.97;;
23539;SDS011;11947;50.810;4.394;2023-02-24T01:11:04;41.03;;;4.68;;
23539;SDS011;11947;50.810;4.394;2023-02-24T01:13:48;43.67;;;4.75;;
23539;SDS011;11947;50.810;4.394;2023-02-24T01:16:15;37.45;;;4.68;;
23539;SDS011;11947;50.810;4.394;2023-02-24T01:18:43;41.40;;;5.00;;
23539;SDS011;11947;50.810;4.394;2023-02-24T01:21:13;40.10;;;4.88;;
23539;SDS011;11947;50.810;4.394;2023-02-24T01:23:47;35.55;;;4.40;;
23539;SDS011;11947;50.810;4.394;2023-02-24T01:26:14;37.85;;;4.85;;
23539;SDS011;11947;50.810;4.394;2023-02-24T01:28:41;39.03;;;5.75;;
23539;SDS011;11947;50.810;4.394;2023-02-24T01:31:07;42.05;;;5.28;;
23539;SDS011;11947;50.810;4.394;2023-02-24T01:33:33;32.25;;;4.28;;
23539;SDS011;11947;50.810;4.394;2023-02-24T01:36:09;35.53;;;4.60;;
23539;SDS011;11947;50.810;4.394;2023-02-24T01:38:39;40.17;;;6.53;;
23539;SDS011;11947;50.810;4.394;2023-02-24T01:41:08;36.42;;;4.38;;
23539;SDS011;11947;50.810;4.394;2023-02-24T01:46:31;38.25;;;4.55;;
23539;SDS011;11947;50.810;4.394;2023-02-24T01:49:04;41.83;;;4.35;;
23539;SDS011;11947;50.810;4.394;2023-02-24T01:51:40;37.35;;;4.55;;
23539;SDS011;11947;50.810;4.394;2023-02-24T01:54:16;38.85;;;4.60;;
23539;SDS011;11947;50.810;4.394;2023-02-24T01:56:53;42.45;;;6.05;;
23539;SDS011;11947;50.810;4.394;2023-02-24T01:59:22;39.42;;;5.95;;
23539;SDS011;11947;50.810;4.394;2023-02-24T02:01:50;30.52;;;4.57;;
23539;SDS011;11947;50.810;4.394;2023-02-24T02:04:24;33.47;;;4.20;;
23539;SDS011;11947;50.810;4.394;2023-02-24T02:07:04;50.58;;;5.70;;
23539;SDS011;11947;50.810;4.394;2023-02-24T02:09:35;42.95;;;5.47;;
23539;SDS011;11947;50.810;4.394;2023-02-24T02:12:05;52.35;;;6.10;;
23539;SDS011;11947;50.810;4.394;2023-02-24T02:14:34;43.53;;;5.55;;
23539;SDS011;11947;50.810;4.394;2023-02-24T02:17:10;41.03;;;5.35;;
23539;SDS011;11947;50.810;4.394;2023-02-24T02:31:38;44.92;;;4.82;;
23539;SDS011;11947;50.810;4.394;2023-02-24T02:34:27;33.97;;;4.95;;
23539;SDS011;11947;50.810;4.394;2023-02-24T02:37:01;31.50;;;4.68;;
23539;SDS011;11947;50.810;4.394;2023-02-24T02:39:50;39.08;;;5.07;;
23539;SDS011;11947;50.810;4.394;2023-02-24T02:45:17;38.97;;;4.68;;
23539;SDS011;11947;50.810;4.394;2023-02-24T02:48:00;33.70;;;4.15;;
23539;SDS011;11947;50.810;4.394;2023-02-24T02:50:34;26.88;;;4.07;;
23539;SDS011;11947;50.810;4.394;2023-02-24T02:54:22;42.30;;;4.68;;
23539;SDS011;11947;50.810;4.394;2023-02-24T03:01:25;26.05;;;3.70;;
23539;SDS011;11947;50.810;4.394;2023-02-24T03:03:54;30.95;;;4.50;;
23539;SDS011;11947;50.810;4.394;2023-02-24T03:06:30;33.67;;;4.20;;
23539;SDS011;11947;50.810;4.394;2023-02-24T03:11:53;37.40;;;4.22;;
23539;SDS011;11947;50.810;4.394;2023-02-24T03:14:28;34.08;;;4.60;;
23539;SDS011;11947;50.810;4.394;2023-02-24T03:17:01;33.08;;;4.53;;
23539;SDS011;11947;50.810;4.394;2023-02-24T03:19:33;31.42;;;3.88;;
23539;SDS011;11947;50.810;4.394;2023-02-24T03:22:23;33.67;;;4.13;;
23539;SDS011;11947;50.810;4.394;2023-02-24T03:24:53;30.75;;;4.10;;
23539;SDS011;11947;50.810;4.394;2023-02-24T03:27:24;34.38;;;4.00;;
23539;SDS011;11947;50.810;4.394;2023-02-24T03:32:50;22.23;;;3.00;;
23539;SDS011;11947;50.810;4.394;2023-02-24T03:35:32;24.60;;;3.70;;
23539;SDS011;11947;50.810;4.394;2023-02-24T03:38:03;25.25;;;3.90;;
23539;SDS011;11947;50.810;4.394;2023-02-24T03:40:30;18.33;;;2.90;;
23539;SDS011;11947;50.810;4.394;2023-02-24T03:43:45;27.98;;;3.70;;
23539;SDS011;11947;50.810;4.394;2023-02-24T03:45:53;30.70;;;3.97;;
23539;SDS011;11947;50.810;4.394;2023-02-24T03:48:19;23.83;;;3.25;;
23539;SDS011;11947;50.810;4.394;2023-02-24T03:50:46;25.70;;;3.15;;
23539;SDS011;11947;50.810;4.394;2023-02-24T03:53:17;26.33;;;3.03;;
23539;SDS011;11947;50.810;4.394;2023-02-24T03:58:24;29.17;;;3.33;;
23539;SDS011;11947;50.810;4.394;2023-02-24T04:11:47;25.52;;;3.88;;
23539;SDS011;11947;50.810;4.394;2023-02-24T04:14:28;21.85;;;4.35;;
23539;SDS011;11947;50.810;4.394;2023-02-24T04:16:59;21.63;;;2.42;;
23539;SDS011;11947;50.810;4.394;2023-02-24T04:19:33;23.33;;;2.70;;
23539;SDS011;11947;50.810;4.394;2023-02-24T04:22:05;23.33;;;2.90;;
23539;SDS011;11947;50.810;4.394;2023-02-24T04:24:34;21.42;;;3.30;;
23539;SDS011;11947;50.810;4.394;2023-02-24T04:27:01;21.63;;;3.55;;
23539;SDS011;11947;50.810;4.394;2023-02-24T04:29:31;18.92;;;3.47;;
23539;SDS011;11947;50.810;4.394;2023-02-24T04:32:01;25.90;;;3.38;;
23539;SDS011;11947;50.810;4.394;2023-02-24T04:34:32;22.63;;;3.38;;
23539;SDS011;11947;50.810;4.394;2023-02-24T04:36:59;24.63;;;3.08;;
23539;SDS011;11947;50.810;4.394;2023-02-24T04:39:26;26.38;;;3.22;;
23539;SDS011;11947;50.810;4.394;2023-02-24T04:41:52;19.75;;;2.95;;
23539;SDS011;11947;50.810;4.394;2023-02-24T04:44:19;29.15;;;3.75;;
23539;SDS011;11947;50.810;4.394;2023-02-24T04:46:46;28.00;;;3.22;;
23539;SDS011;11947;50.810;4.394;2023-02-24T04:49:14;22.35;;;3.22;;
23539;SDS011;11947;50.810;4.394;2023-02-24T04:51:40;30.60;;;3.25;;
23539;SDS011;11947;50.810;4.394;2023-02-24T04:54:16;34.45;;;3.38;;
23539;SDS011;11947;50.810;4.394;2023-02-24T04:56:43;24.95;;;3.55;;
23539;SDS011;11947;50.810;4.394;2023-02-24T04:59:14;31.55;;;4.13;;
23539;SDS011;11947;50.810;4.394;2023-02-24T05:01:41;27.02;;;2.60;;
23539;SDS011;11947;50.810;4.394;2023-02-24T05:04:09;29.13;;;4.35;;
23539;SDS011;11947;50.810;4.394;2023-02-24T05:06:36;27.00;;;3.85;;
23539;SDS011;11947;50.810;4.394;2023-02-24T05:09:08;27.75;;;3.67;;
23539;SDS011;11947;50.810;4.394;2023-02-24T05:11:45;24.88;;;3.88;;
23539;SDS011;11947;50.810;4.394;2023-02-24T05:14:16;31.85;;;3.30;;
23539;SDS011;11947;50.810;4.394;2023-02-24T05:19:20;27.85;;;3.65;;
23539;SDS011;11947;50.810;4.394;2023-02-24T05:22:05;32.15;;;4.13;;
23539;SDS011;11947;50.810;4.394;2023-02-24T05:24:31;23.08;;;3.53;;
23539;SDS011;11947;50.810;4.394;2023-02-24T05:26:57;30.58;;;3.88;;
23539;SDS011;11947;50.810;4.394;2023-02-24T05:29:24;31.48;;;3.58;;
23539;SDS011;11947;50.810;4.394;2023-02-24T05:31:50;32.65;;;3.45;;
23539;SDS011;11947;50.810;4.394;2023-02-24T05:34:18;23.65;;;3.47;;
23539;SDS011;11947;50.810;4.394;2023-02-24T05:36:43;24.15;;;3.38;;
23539;SDS011;11947;50.810;4.394;2023-02-24T05:39:10;27.27;;;3.17;;
23539;SDS011;11947;50.810;4.394;2023-02-24T05:41:40;30.30;;;4.15;;
23539;SDS011;11947;50.810;4.394;2023-02-24T05:44:09;27.92;;;4.28;;
23539;SDS011;11947;50.810;4.394;2023-02-24T05:46:40;29.38;;;5.18;;
23539;SDS011;11947;50.810;4.394;2023-02-24T05:49:17;31.65;;;4.22;;
23539;SDS011;11947;50.810;4.394;2023-02-24T05:51:47;35.33;;;4.30;;
23539;SDS011;11947;50.810;4.394;2023-02-24T05:54:25;30.83;;;3.88;;
23539;SDS011;11947;50.810;4.394;2023-02-24T05:56:59;27.10;;;4.25;;
23539;SDS011;11947;50.810;4.394;2023-02-24T05:59:29;26.42;;;3.92;;
23539;SDS011;11947;50.810;4.394;2023-02-24T06:01:57;34.78;;;4.60;;
23539;SDS011;11947;50.810;4.394;2023-02-24T06:04:31;28.15;;;4.53;;
23539;SDS011;11947;50.810;4.394;2023-02-24T06:07:14;24.83;;;4.25;;
23539;SDS011;11947;50.810;4.394;2023-02-24T06:09:47;34.50;;;4.85;;
23539;SDS011;11947;50.810;4.394;2023-02-24T06:12:17;25.15;;;4.80;;
23539;SDS011;11947;50.810;4.394;2023-02-24T06:14:44;19.58;;;4.53;;
23539;SDS011;11947;50.810;4.394;2023-02-24T06:17:10;22.40;;;4.13;;
23539;SDS011;11947;50.810;4.394;2023-02-24T06:19:35;25.45;;;4.13;;
23539;SDS011;11947;50.810;4.394;2023-02-24T06:22:01;20.00;;;3.63;;
23539;SDS011;11947;50.810;4.394;2023-02-24T06:24:28;18.52;;;3.83;;
23539;SDS011;11947;50.810;4.394;2023-02-24T06:26:56;22.95;;;4.35;;
23539;SDS011;11947;50.810;4.394;2023-02-24T06:29:29;22.75;;;3.70;;
23539;SDS011;11947;50.810;4.394;2023-02-24T06:31:55;31.23;;;4.57;;
23539;SDS011;11947;50.810;4.394;2023-02-24T06:34:22;19.83;;;4.00;;
23539;SDS011;11947;50.810;4.394;2023-02-24T06:36:49;27.20;;;4.55;;
23539;SDS011;11947;50.810;4.394;2023-02-24T06:39:16;24.70;;;4.05;;
23539;SDS011;11947;50.810;4.394;2023-02-24T06:41:42;22.52;;;4.28;;
23539;SDS011;11947;50.810;4.394;2023-02-24T06:44:08;23.75;;;4.57;;
23539;SDS011;11947;50.810;4.394;2023-02-24T06:46:34;22.88;;;4.70;;
23539;SDS011;11947;50.810;4.394;2023-02-24T06:49:01;27.63;;;4.68;;
23539;SDS011;11947;50.810;4.394;2023-02-24T06:51:27;21.48;;;4.03;;
23539;SDS011;11947;50.810;4.394;2023-02-24T06:53:54;29.83;;;4.07;;
23539;SDS011;11947;50.810;4.394;2023-02-24T06:56:21;26.77;;;5.25;;
23539;SDS011;11947;50.810;4.394;2023-02-24T06:58:48;27.95;;;5.50;;
23539;SDS011;11947;50.810;4.394;2023-02-24T07:01:20;23.83;;;4.55;;
23539;SDS011;11947;50.810;4.394;2023-02-24T07:03:49;29.98;;;5.22;;
23539;SDS011;11947;50.810;4.394;2023-02-24T07:06:26;27.17;;;5.57;;
23539;SDS011;11947;50.810;4.394;2023-02-24T07:08:54;31.95;;;6.78;;
23539;SDS011;11947;50.810;4.394;2023-02-24T07:11:22;35.03;;;5.82;;
23539;SDS011;11947;50.810;4.394;2023-02-24T07:13:49;25.80;;;5.88;;
23539;SDS011;11947;50.810;4.394;2023-02-24T07:16:15;25.50;;;6.00;;
23539;SDS011;11947;50.810;4.394;2023-02-24T07:18:42;41.10;;;6.93;;
23539;SDS011;11947;50.810;4.394;2023-02-24T07:21:12;38.35;;;9.95;;
23539;SDS011;11947;50.810;4.394;2023-02-24T07:23:41;52.33;;;12.00;;
23539;SDS011;11947;50.810;4.394;2023-02-24T07:26:14;32.90;;;7.68;;
23539;SDS011;11947;50.810;4.394;2023-02-24T07:28:42;37.60;;;7.65;;
23539;SDS011;11947;50.810;4.394;2023-02-24T07:31:11;33.55;;;8.00;;
23539;SDS011;11947;50.810;4.394;2023-02-24T07:33:39;39.42;;;7.45;;
23539;SDS011;11947;50.810;4.394;2023-02-24T07:36:09;31.80;;;7.97;;
23539;SDS011;11947;50.810;4.394;2023-02-24T07:38:39;38.72;;;8.88;;
23539;SDS011;11947;50.810;4.394;2023-02-24T07:41:09;39.97;;;7.97;;
23539;SDS011;11947;50.810;4.394;2023-02-24T07:43:37;30.83;;;7.40;;
23539;SDS011;11947;50.810;4.394;2023-02-24T07:46:09;35.17;;;7.80;;
23539;SDS011;11947;50.810;4.394;2023-02-24T07:48:40;35.90;;;7.88;;
23539;SDS011;11947;50.810;4.394;2023-02-24T07:51:11;36.75;;;7.47;;
23539;SDS011;11947;50.810;4.394;2023-02-24T07:53:41;46.72;;;12.45;;
23539;SDS011;11947;50.810;4.394;2023-02-24T07:56:08;31.73;;;7.30;;
23539;SDS011;11947;50.810;4.394;2023-02-24T07:58:40;41.78;;;7.00;;
23539;SDS011;11947;50.810;4.394;2023-02-24T08:01:08;25.88;;;6.35;;
23539;SDS011;11947;50.810;4.394;2023-02-24T08:03:47;27.92;;;5.88;;
23539;SDS011;11947;50.810;4.394;2023-02-24T08:06:17;29.27;;;6.22;;
23539;SDS011;11947;50.810;4.394;2023-02-24T08:08:51;91.00;;;29.70;;
23539;SDS011;11947;50.810;4.394;2023-02-24T08:11:23;33.42;;;7.03;;
23539;SDS011;11947;50.810;4.394;2023-02-24T08:13:49;39.72;;;6.72;;
23539;SDS011;11947;50.810;4.394;2023-02-24T08:16:15;32.95;;;6.90;;
23539;SDS011;11947;50.810;4.394;2023-02-24T08:18:41;38.15;;;5.50;;
23539;SDS011;11947;50.810;4.394;2023-02-24T08:21:13;40.60;;;8.45;;
23539;SDS011;11947;50.810;4.394;2023-02-24T08:23:40;34.40;;;6.28;;
23539;SDS011;11947;50.810;4.394;2023-02-24T08:26:08;42.00;;;5.88;;
23539;SDS011;11947;50.810;4.394;2023-02-24T08:28:39;27.38;;;5.15;;
23539;SDS011;11947;50.810;4.394;2023-02-24T08:31:05;28.10;;;5.38;;
23539;SDS011;11947;50.810;4.394;2023-02-24T08:33:31;28.27;;;5.72;;
23539;SDS011;11947;50.810;4.394;2023-02-24T08:36:01;25.17;;;5.10;;
23539;SDS011;11947;50.810;4.394;2023-02-24T08:38:28;32.30;;;5.63;;
23539;SDS011;11947;50.810;4.394;2023-02-24T08:41:15;31.58;;;5.47;;
23539;SDS011;11947;50.810;4.394;2023-02-24T08:43:43;26.30;;;4.72;;
23539;SDS011;11947;50.810;4.394;2023-02-24T08:48:55;21.63;;;5.05;;
23539;SDS011;11947;50.810;4.394;2023-02-24T08:51:34;25.67;;;4.43;;
23539;SDS011;11947;50.810;4.394;2023-02-24T08:54:07;31.17;;;5.25;;
23539;SDS011;11947;50.810;4.394;2023-02-24T08:56:39;21.08;;;4.38;;
23539;SDS011;11947;50.810;4.394;2023-02-24T08:59:13;24.27;;;4.28;;
23539;SDS011;11947;50.810;4.394;2023-02-24T09:02:00;26.88;;;4.65;;
23539;SDS011;11947;50.810;4.394;2023-02-24T09:04:45;28.70;;;5.43;;
23539;SDS011;11947;50.810;4.394;2023-02-24T09:07:22;24.02;;;4.40;;
23539;SDS011;11947;50.810;4.394;2023-02-24T09:09:50;21.27;;;3.92;;
23539;SDS011;11947;50.810;4.394;2023-02-24T09:12:20;23.70;;;4.43;;
23539;SDS011;11947;50.810;4.394;2023-02-24T09:14:49;30.10;;;4.03;;
23539;SDS011;11947;50.810;4.394;2023-02-24T09:17:19;21.67;;;3.38;;
23539;SDS011;11947;50.810;4.394;2023-02-24T09:20:04;31.48;;;4.07;;
23539;SDS011;11947;50.810;4.394;2023-02-24T09:22:54;25.27;;;3.70;;
23539;SDS011;11947;50.810;4.394;2023-02-24T09:25:24;16.80;;;3.03;;
23539;SDS011;11947;50.810;4.394;2023-02-24T09:28:23;20.85;;;3.30;;
23539;SDS011;11947;50.810;4.394;2023-02-24T09:30:57;17.88;;;2.58;;
23539;SDS011;11947;50.810;4.394;2023-02-24T09:33:25;16.23;;;3.08;;
23539;SDS011;11947;50.810;4.394;2023-02-24T09:36:10;19.65;;;3.05;;
23539;SDS011;11947;50.810;4.394;2023-02-24T09:38:54;23.45;;;3.28;;
23539;SDS011;11947;50.810;4.394;2023-02-24T09:44:40;12.38;;;3.15;;
23539;SDS011;11947;50.810;4.394;2023-02-24T09:49:55;17.48;;;3.10;;
23539;SDS011;11947;50.810;4.394;2023-02-24T09:52:28;15.65;;;2.67;;
23539;SDS011;11947;50.810;4.394;2023-02-24T10:06:41;20.92;;;3.65;;
23539;SDS011;11947;50.810;4.394;2023-02-24T10:09:17;26.85;;;3.55;;
23539;SDS011;11947;50.810;4.394;2023-02-24T10:17:55;13.75;;;3.17;;
23539;SDS011;11947;50.810;4.394;2023-02-24T10:20:51;15.93;;;2.85;;
23539;SDS011;11947;50.810;4.394;2023-02-24T10:29:06;19.02;;;3.80;;
23539;SDS011;11947;50.810;4.394;2023-02-24T10:31:56;15.65;;;3.70;;
23539;SDS011;11947;50.810;4.394;2023-02-24T10:34:48;19.88;;;3.60;;
23539;SDS011;11947;50.810;4.394;2023-02-24T10:37:16;25.38;;;3.75;;
23539;SDS011;11947;50.810;4.394;2023-02-24T10:39:46;15.15;;;3.28;;
23539;SDS011;11947;50.810;4.394;2023-02-24T10:42:23;18.63;;;3.65;;
23539;SDS011;11947;50.810;4.394;2023-02-24T10:47:41;17.27;;;3.05;;
23539;SDS011;11947;50.810;4.394;2023-02-24T10:52:54;35.13;;;14.63;;
23539;SDS011;11947;50.810;4.394;2023-02-24T10:55:31;21.85;;;5.85;;
23539;SDS011;11947;50.810;4.394;2023-02-24T10:58:13;19.45;;;5.43;;
23539;SDS011;11947;50.810;4.394;2023-02-24T11:00:52;26.13;;;6.50;;
23539;SDS011;11947;50.810;4.394;2023-02-24T11:03:33;29.30;;;9.88;;
23539;SDS011;11947;50.810;4.394;2023-02-24T11:06:31;39.83;;;12.38;;
23539;SDS011;11947;50.810;4.394;2023-02-24T11:09:18;36.75;;;10.60;;
23539;SDS011;11947;50.810;4.394;2023-02-24T11:11:51;25.13;;;7.70;;
23539;SDS011;11947;50.810;4.394;2023-02-24T11:14:58;21.73;;;7.25;;
23539;SDS011;11947;50.810;4.394;2023-02-24T11:18:22;18.45;;;3.63;;
23539;SDS011;11947;50.810;4.394;2023-02-24T11:21:03;16.58;;;4.30;;
23539;SDS011;11947;50.810;4.394;2023-02-24T11:23:46;18.67;;;4.10;;
23539;SDS011;11947;50.810;4.394;2023-02-24T11:26:39;16.48;;;4.30;;
23539;SDS011;11947;50.810;4.394;2023-02-24T11:37:32;20.50;;;4.50;;
23539;SDS011;11947;50.810;4.394;2023-02-24T11:45:47;15.93;;;3.92;;
23539;SDS011;11947;50.810;4.394;2023-02-24T11:48:31;21.38;;;4.10;;
23539;SDS011;11947;50.810;4.394;2023-02-24T11:51:31;16.50;;;4.43;;
23539;SDS011;11947;50.810;4.394;2023-02-24T11:54:18;17.10;;;5.03;;
23539;SDS011;11947;50.810;4.394;2023-02-24T12:00:39;12.25;;;3.88;;
23539;SDS011;11947;50.810;4.394;2023-02-24T12:03:26;21.52;;;4.13;;
23539;SDS011;11947;50.810;4.394;2023-02-24T12:06:12;15.27;;;4.18;;
23539;SDS011;11947;50.810;4.394;2023-02-24T12:09:14;15.82;;;3.90;;
23539;SDS011;11947;50.810;4.394;2023-02-24T12:12:05;16.30;;;3.88;;
23539;SDS011;11947;50.810;4.394;2023-02-24T12:15:01;17.48;;;3.63;;
23539;SDS011;11947;50.810;4.394;2023-02-24T12:21:06;21.63;;;4.68;;
23539;SDS011;11947;50.810;4.394;2023-02-24T12:23:46;16.75;;;3.95;;
23539;SDS011;11947;50.810;4.394;2023-02-24T12:29:44;14.75;;;4.20;;
23539;SDS011;11947;50.810;4.394;2023-02-24T12:43:15;19.63;;;4.10;;
23539;SDS011;11947;50.810;4.394;2023-02-24T12:46:27;19.92;;;4.70;;
23539;SDS011;11947;50.810;4.394;2023-02-24T12:55:05;23.20;;;4.25;;
23539;SDS011;11947;50.810;4.394;2023-02-24T12:57:59;18.52;;;4.00;;
23539;SDS011;11947;50.810;4.394;2023-02-24T13:06:29;19.40;;;4.43;;
23539;SDS011;11947;50.810;4.394;2023-02-24T13:09:21;19.08;;;4.70;;
23539;SDS011;11947;50.810;4.394;2023-02-24T13:15:27;19.63;;;4.97;;
23539;SDS011;11947;50.810;4.394;2023-02-24T13:18:25;67.38;;;7.53;;
23539;SDS011;11947;50.810;4.394;2023-02-24T13:21:00;23.85;;;5.38;;
23539;SDS011;11947;50.810;4.394;2023-02-24T13:23:57;23.85;;;5.30;;
23539;SDS011;11947;50.810;4.394;2023-02-24T13:26:28;23.02;;;6.60;;
23539;SDS011;11947;50.810;4.394;2023-02-24T13:29:02;19.58;;;5.97;;
23539;SDS011;11947;50.810;4.394;2023-02-24T13:31:53;19.10;;;5.50;;
23539;SDS011;11947;50.810;4.394;2023-02-24T13:36:55;23.65;;;6.32;;
23539;SDS011;11947;50.810;4.394;2023-02-24T13:39:33;20.48;;;5.80;;
23539;SDS011;11947;50.810;4.394;2023-02-24T13:47:41;23.08;;;6.07;;
23539;SDS011;11947;50.810;4.394;2023-02-24T14:02:48;21.17;;;6.30;;
23539;SDS011;11947;50.810;4.394;2023-02-24T14:06:06;21.10;;;7.65;;
23539;SDS011;11947;50.810;4.394;2023-02-24T14:08:42;30.75;;;9.10;;
23539;SDS011;11947;50.810;4.394;2023-02-24T14:11:15;23.48;;;8.35;;
23539;SDS011;11947;50.810;4.394;2023-02-24T14:13:45;30.08;;;8.40;;
23539;SDS011;11947;50.810;4.394;2023-02-24T14:16:28;29.58;;;11.50;;
23539;SDS011;11947;50.810;4.394;2023-02-24T14:19:02;30.70;;;12.25;;
23539;SDS011;11947;50.810;4.394;2023-02-24T14:21:46;29.40;;;12.23;;
23539;SDS011;11947;50.810;4.394;2023-02-24T14:24:26;27.33;;;12.38;;
23539;SDS011;11947;50.810;4.394;2023-02-24T14:26:57;32.28;;;12.25;;
23539;SDS011;11947;50.810;4.394;2023-02-24T14:29:27;33.25;;;13.48;;
23539;SDS011;11947;50.810;4.394;2023-02-24T14:32:17;34.22;;;13.68;;
23539;SDS011;11947;50.810;4.394;2023-02-24T14:34:45;25.48;;;13.40;;
23539;SDS011;11947;50.810;4.394;2023-02-24T14:37:13;36.50;;;13.98;;
23539;SDS011;11947;50.810;4.394;2023-02-24T14:39:51;34.08;;;14.48;;
23539;SDS011;11947;50.810;4.394;2023-02-24T14:42:21;32.20;;;14.60;;
23539;SDS011;11947;50.810;4.394;2023-02-24T14:44:48;29.77;;;14.70;;
23539;SDS011;11947;50.810;4.394;2023-02-24T14:47:16;40.65;;;15.77;;
23539;SDS011;11947;50.810;4.394;2023-02-24T14:49:51;35.00;;;15.95;;
23539;SDS011;11947;50.810;4.394;2023-02-24T14:52:29;31.33;;;15.32;;
23539;SDS011;11947;50.810;4.394;2023-02-24T14:55:15;44.38;;;19.02;;
23539;SDS011;11947;50.810;4.394;2023-02-24T15:00:49;37.30;;;16.67;;
23539;SDS011;11947;50.810;4.394;2023-02-24T15:03:19;37.38;;;16.63;;
23539;SDS011;11947;50.810;4.394;2023-02-24T15:06:05;40.30;;;17.75;;
23539;SDS011;11947;50.810;4.394;2023-02-24T15:08:48;27.45;;;13.88;;
23539;SDS011;11947;50.810;4.394;2023-02-24T15:11:20;28.48;;;12.55;;
23539;SDS011;11947;50.810;4.394;2023-02-24T15:13:52;35.97;;;16.88;;
23539;SDS011;11947;50.810;4.394;2023-02-24T15:16:28;46.08;;;18.90;;
23539;SDS011;11947;50.810;4.394;2023-02-24T15:19:03;36.20;;;16.73;;
23539;SDS011;11947;50.810;4.394;2023-02-24T15:21:33;38.10;;;17.02;;
23539;SDS011;11947;50.810;4.394;2023-02-24T15:24:23;35.85;;;16.20;;
23539;SDS011;11947;50.810;4.394;2023-02-24T15:26:51;31.60;;;14.85;;
23539;SDS011;11947;50.810;4.394;2023-02-24T15:29:20;31.80;;;14.50;;
23539;SDS011;11947;50.810;4.394;2023-02-24T15:31:49;34.65;;;15.85;;
23539;SDS011;11947;50.810;4.394;2023-02-24T15:34:16;41.92;;;17.35;;
23539;SDS011;11947;50.810;4.394;2023-02-24T15:36:45;32.78;;;15.77;;
23539;SDS011;11947;50.810;4.394;2023-02-24T15:39:18;31.05;;;14.77;;
23539;SDS011;11947;50.810;4.394;2023-02-24T15:41:48;30.33;;;15.02;;
23539;SDS011;11947;50.810;4.394;2023-02-24T15:44:28;33.42;;;14.02;;
23539;SDS011;11947;50.810;4.394;2023-02-24T15:46:56;29.60;;;14.05;;
23539;SDS011;11947;50.810;4.394;2023-02-24T15:49:23;34.13;;;14.13;;
23539;SDS011;11947;50.810;4.394;2023-02-24T15:51:50;46.22;;;19.63;;
23539;SDS011;11947;50.810;4.394;2023-02-24T15:54:18;33.35;;;15.70;;
23539;SDS011;11947;50.810;4.394;2023-02-24T15:56:53;39.88;;;17.35;;
23539;SDS011;11947;50.810;4.394;2023-02-24T15:59:22;34.38;;;15.93;;
23539;SDS011;11947;50.810;4.394;2023-02-24T16:01:48;36.90;;;17.05;;
23539;SDS011;11947;50.810;4.394;2023-02-24T16:04:15;47.20;;;16.63;;
23539;SDS011;11947;50.810;4.394;2023-02-24T16:06:42;34.10;;;16.77;;
23539;SDS011;11947;50.810;4.394;2023-02-24T16:09:39;32.08;;;17.02;;
23539;SDS011;11947;50.810;4.394;2023-02-24T16:12:06;41.55;;;17.13;;
23539;SDS011;11947;50.810;4.394;2023-02-24T16:14:37;38.00;;;17.95;;
23539;SDS011;11947;50.810;4.394;2023-02-24T16:17:05;35.25;;;17.52;;
23539;SDS011;11947;50.810;4.394;2023-02-24T16:19:43;33.55;;;16.85;;
23539;SDS011;11947;50.810;4.394;2023-02-24T16:22:08;36.33;;;18.48;;
23539;SDS011;11947;50.810;4.394;2023-02-24T16:24:34;32.95;;;16.88;;
23539;SDS011;11947;50.810;4.394;2023-02-24T16:27:00;44.95;;;17.63;;
23539;SDS011;11947;50.810;4.394;2023-02-24T16:29:26;42.63;;;17.17;;
23539;SDS011;11947;50.810;4.394;2023-02-24T16:31:52;44.97;;;17.33;;
23539;SDS011;11947;50.810;4.394;2023-02-24T16:34:17;35.42;;;17.35;;
23539;SDS011;11947;50.810;4.394;2023-02-24T16:36:43;36.60;;;18.45;;
23539;SDS011;11947;50.810;4.394;2023-02-24T16:39:09;43.97;;;18.02;;
23539;SDS011;11947;50.810;4.394;2023-02-24T16:41:36;41.00;;;17.70;;
23539;SDS011;11947;50.810;4.394;2023-02-24T16:44:02;38.35;;;18.13;;
23539;SDS011;11947;50.810;4.394;2023-02-24T16:46:28;36.10;;;17.52;;
23539;SDS011;11947;50.810;4.394;2023-02-24T16:49:05;42.47;;;18.33;;
23539;SDS011;11947;50.810;4.394;2023-02-24T16:51:34;40.50;;;17.45;;
23539;SDS011;11947;50.810;4.394;2023-02-24T16:54:02;35.17;;;17.02;;
23539;SDS011;11947;50.810;4.394;2023-02-24T16:56:29;40.97;;;16.90;;
23539;SDS011;11947;50.810;4.394;2023-02-24T16:58:55;36.53;;;17.42;;
23539;SDS011;11947;50.810;4.394;2023-02-24T17:01:20;46.10;;;16.92;;
23539;SDS011;11947;50.810;4.394;2023-02-24T17:03:48;42.13;;;17.70;;
23539;SDS011;11947;50.810;4.394;2023-02-24T17:06:39;36.13;;;17.13;;
23539;SDS011;11947;50.810;4.394;2023-02-24T17:09:05;42.67;;;17.33;;
23539;SDS011;11947;50.810;4.394;2023-02-24T17:11:30;36.25;;;17.05;;
23539;SDS011;11947;50.810;4.394;2023-02-24T17:13:57;43.08;;;15.57;;
23539;SDS011;11947;50.810;4.394;2023-02-24T17:16:23;40.80;;;15.10;;
23539;SDS011;11947;50.810;4.394;2023-02-24T17:18:49;42.63;;;16.20;;
23539;SDS011;11947;50.810;4.394;2023-02-24T17:21:14;37.80;;;16.10;;
23539;SDS011;11947;50.810;4.394;2023-02-24T17:23:41;46.40;;;14.77;;
23539;SDS011;11947;50.810;4.394;2023-02-24T17:26:08;43.20;;;15.18;;
23539;SDS011;11947;50.810;4.394;2023-02-24T17:28:37;38.47;;;14.20;;
23539;SDS011;11947;50.810;4.394;2023-02-24T17:31:03;40.97;;;13.55;;
23539;SDS011;11947;50.810;4.394;2023-02-24T17:33:31;44.17;;;14.55;;
23539;SDS011;11947;50.810;4.394;2023-02-24T17:35:57;50.58;;;13.75;;
23539;SDS011;11947;50.810;4.394;2023-02-24T17:38:23;40.35;;;11.93;;
23539;SDS011;11947;50.810;4.394;2023-02-24T17:40:50;38.67;;;11.63;;
23539;SDS011;11947;50.810;4.394;2023-02-24T17:43:16;39.72;;;10.65;;